createdAt,value
2023-02-24T00:02:06.230Z,95.70
2023-02-24T00:04:38.577Z,96.20
2023-02-24T00:07:06.769Z,96.30
2023-02-24T00:09:34.487Z,96.30
2023-02-24T00:12:09.055Z,96.50
2023-02-24T00:14:38.381Z,96.50
2023-02-24T00:17:08.399Z,96.80
2023-02-24T00:19:36.635Z,97.00
2023-02-24T00:22:05.354Z,97.10
2023-02-24T00:24:32.762Z,97.40
2023-02-24T00:27:02.557Z,97.70
2023-02-24T00:29:32.591Z,97.70
2023-02-24T00:32:00.150Z,97.90
2023-02-24T00:34:33.710Z,98.20
2023-02-24T00:37:00.964Z,98.30
2023-02-24T00:39:30.612Z,98.50
2023-02-24T00:42:04.714Z,98.60
2023-02-24T00:44:45.290Z,98.70
2023-02-24T00:47:13.817Z,98.70
2023-02-24T00:49:44.263Z,98.90
2023-02-24T00:52:14.022Z,99.10
2023-02-24T00:54:42.238Z,99.20
2023-02-24T00:57:10.765Z,99.50
2023-02-24T00:59:39.189Z,99.90
2023-02-24T01:02:07.458Z,99.90
2023-02-24T01:04:35.499Z,99.90
2023-02-24T01:07:02.717Z,99.90
2023-02-24T01:09:32.576Z,99.90
2023-02-24T01:12:18.240Z,99.90
2023-02-24T01:14:47.979Z,99.90
2023-02-24T01:17:16.447Z,99.90
2023-02-24T01:19:44.752Z,99.90
2023-02-24T01:22:15.413Z,99.90
2023-02-24T01:24:44.190Z,99.90
2023-02-24T01:27:14.273Z,99.90
2023-02-24T01:29:43.561Z,99.90
2023-02-24T01:32:17.393Z,99.90
2023-02-24T01:34:45.364Z,99.90
2023-02-24T01:37:16.721Z,99.90
2023-02-24T01:39:44.837Z,99.90
2023-02-24T01:42:20.307Z,99.90
2023-02-24T01:44:47.827Z,99.90
2023-02-24T01:47:18.408Z,99.90
2023-02-24T01:49:48.101Z,99.90
2023-02-24T01:52:25.747Z,99.90
2023-02-24T01:55:06.763Z,99.90
2023-02-24T01:57:38.942Z,99.90
2023-02-24T02:00:12.010Z,99.90
2023-02-24T02:02:46.610Z,99.90
2023-02-24T02:05:14.998Z,99.90
2023-02-24T02:07:43.572Z,99.90
2023-02-24T02:10:12.447Z,99.90
2023-02-24T02:12:45.671Z,99.90
2023-02-24T02:15:15.672Z,99.90
2023-02-24T02:17:55.547Z,99.90
2023-02-24T02:20:42.893Z,99.90
2023-02-24T02:23:33.375Z,99.90
2023-02-24T02:26:19.010Z,99.90
2023-02-24T02:28:55.112Z,99.90
2023-02-24T02:31:46.654Z,99.90
2023-02-24T02:34:34.415Z,99.90
2023-02-24T02:37:08.221Z,99.90
2023-02-24T02:39:41.393Z,99.90
2023-02-24T02:42:15.020Z,99.90
2023-02-24T02:44:57.155Z,99.90
2023-02-24T02:47:50.674Z,99.90
2023-02-24T02:50:28.148Z,99.90
2023-02-24T02:53:05.318Z,99.90
2023-02-24T02:55:40.800Z,99.90
2023-02-24T02:58:14.879Z,99.90
2023-02-24T03:00:59.079Z,99.90
2023-02-24T03:03:28.101Z,99.90
2023-02-24T03:06:01.698Z,99.90
2023-02-24T03:08:34.418Z,99.90
2023-02-24T03:11:05.670Z,99.90
2023-02-24T03:13:39.380Z,99.90
2023-02-24T03:16:11.071Z,99.90
2023-02-24T03:18:53.140Z,99.90
2023-02-24T03:21:38.784Z,99.90
2023-02-24T03:24:07.235Z,99.90
2023-02-24T03:26:41.554Z,99.90
2023-02-24T03:29:37.533Z,99.90
2023-02-24T03:32:33.777Z,99.90
2023-02-24T03:35:13.335Z,99.90
2023-02-24T03:37:41.269Z,99.90
2023-02-24T03:40:14.685Z,99.90
2023-02-24T03:42:52.727Z,99.90
2023-02-24T03:45:23.342Z,99.90
2023-02-24T03:47:54.196Z,99.90
2023-02-24T03:50:22.267Z,99.90
2023-02-24T03:53:08.401Z,99.90
2023-02-24T03:55:58.949Z,99.90
2023-02-24T03:58:52.294Z,99.90
2023-02-24T04:01:31.096Z,99.90
2023-02-24T04:04:23.341Z,99.90
2023-02-24T04:07:52.849Z,99.90
2023-02-24T04:10:24.420Z,99.90
2023-02-24T04:12:55.120Z,99.90
2023-02-24T04:15:29.714Z,99.90
2023-02-24T04:18:04.913Z,99.90
2023-02-24T04:20:40.077Z,99.90
2023-02-24T04:23:15.048Z,99.90
2023-02-24T04:25:47.824Z,99.90
2023-02-24T04:28:19.088Z,99.90
2023-02-24T04:30:50.984Z,99.90
2023-02-24T04:33:19.598Z,99.90
2023-02-24T04:35:50.627Z,99.90
2023-02-24T04:38:19.673Z,99.90
2023-02-24T04:40:46.913Z,99.90
2023-02-24T04:43:14.156Z,99.90
2023-02-24T04:45:41.222Z,99.90
2023-02-24T04:48:13.114Z,99.90
2023-02-24T04:50:43.029Z,99.90
2023-02-24T04:53:17.520Z,99.90
2023-02-24T04:55:49.077Z,99.90
2023-02-24T04:58:19.643Z,99.90
2023-02-24T05:00:49.198Z,99.90
2023-02-24T05:03:17.543Z,99.90
2023-02-24T05:05:58.337Z,99.90
2023-02-24T05:08:27.323Z,99.90
2023-02-24T05:10:54.926Z,99.90
2023-02-24T05:13:28.166Z,99.90
2023-02-24T05:15:58.257Z,99.90
2023-02-24T05:18:26.415Z,99.90
2023-02-24T05:21:14.097Z,99.90
2023-02-24T05:23:46.953Z,99.90
2023-02-24T05:26:17.279Z,99.90
2023-02-24T05:28:49.497Z,99.90
2023-02-24T05:31:22.245Z,99.90
2023-02-24T05:33:54.720Z,99.90
2023-02-24T05:36:22.801Z,99.90
2023-02-24T05:38:57.990Z,99.90
2023-02-24T05:41:36.138Z,99.90
2023-02-24T05:44:08.670Z,99.90
2023-02-24T05:46:40.231Z,99.90
2023-02-24T05:49:14.485Z,99.90
2023-02-24T05:51:54.696Z,99.90
2023-02-24T05:54:30.242Z,99.90
2023-02-24T05:57:02.787Z,99.90
2023-02-24T05:59:33.378Z,99.90
2023-02-24T06:02:07.367Z,99.90
2023-02-24T06:04:45.945Z,99.90
2023-02-24T06:07:20.999Z,99.90
2023-02-24T06:09:53.801Z,99.90
2023-02-24T06:12:33.876Z,99.90
2023-02-24T06:15:02.414Z,99.90
2023-02-24T06:17:29.777Z,99.90
2023-02-24T06:19:56.993Z,99.90
2023-02-24T06:22:25.812Z,99.90
2023-02-24T06:24:54.833Z,99.90
2023-02-24T06:27:25.377Z,99.90
2023-02-24T06:29:54.512Z,99.90
2023-02-24T06:32:24.789Z,99.90
2023-02-24T06:34:54.057Z,99.90
2023-02-24T06:37:23.331Z,99.90
2023-02-24T06:39:50.699Z,99.90
2023-02-24T06:42:17.816Z,99.90
2023-02-24T06:44:45.403Z,99.90
2023-02-24T06:47:14.619Z,99.90
2023-02-24T06:49:43.006Z,99.90
2023-02-24T06:52:11.800Z,99.90
2023-02-24T06:54:39.122Z,99.90
2023-02-24T06:57:06.800Z,99.90
2023-02-24T06:59:34.367Z,99.90
2023-02-24T07:02:04.661Z,99.90
2023-02-24T07:04:43.630Z,99.90
2023-02-24T07:07:11.476Z,99.90
2023-02-24T07:09:38.522Z,99.90
2023-02-24T07:12:08.150Z,99.90
2023-02-24T07:14:37.160Z,99.90
2023-02-24T07:17:05.876Z,99.90
2023-02-24T07:19:33.011Z,99.90
2023-02-24T07:22:03.648Z,99.90
2023-02-24T07:24:37.048Z,99.90
2023-02-24T07:27:08.678Z,99.90
2023-02-24T07:29:40.102Z,99.90
2023-02-24T07:32:09.318Z,99.90
2023-02-24T07:34:40.386Z,99.90
2023-02-24T07:37:09.205Z,99.90
2023-02-24T07:39:39.999Z,99.90
2023-02-24T07:42:09.054Z,99.90
2023-02-24T07:44:45.153Z,99.90
2023-02-24T07:47:12.520Z,99.90
2023-02-24T07:49:41.173Z,99.90
2023-02-24T07:52:08.880Z,99.90
2023-02-24T07:54:37.218Z,99.90
2023-02-24T07:57:06.217Z,99.90
2023-02-24T07:59:37.657Z,99.90
2023-02-24T08:02:07.811Z,99.90
2023-02-24T08:04:36.518Z,99.90
2023-02-24T08:07:04.343Z,99.90
2023-02-24T08:09:46.725Z,99.90
2023-02-24T08:12:22.594Z,99.90
2023-02-24T08:14:53.802Z,99.90
2023-02-24T08:17:26.769Z,99.90
2023-02-24T08:20:15.739Z,99.90
2023-02-24T08:22:46.656Z,99.90
2023-02-24T08:25:18.905Z,99.90
2023-02-24T08:28:06.879Z,99.90
2023-02-24T08:30:38.939Z,99.90
2023-02-24T08:33:16.059Z,99.90
2023-02-24T08:35:46.860Z,99.90
2023-02-24T08:38:23.724Z,99.90
2023-02-24T08:40:55.197Z,99.90
2023-02-24T08:43:34.597Z,99.90
2023-02-24T08:46:14.004Z,99.90
2023-02-24T08:48:44.155Z,99.90
2023-02-24T08:51:23.014Z,99.90
2023-02-24T08:53:55.493Z,99.90
2023-02-24T08:56:25.950Z,99.90
2023-02-24T08:58:57.310Z,99.90
2023-02-24T09:01:34.877Z,99.90
2023-02-24T09:04:28.565Z,99.90
2023-02-24T09:07:10.748Z,99.90
2023-02-24T09:09:42.412Z,99.90
2023-02-24T09:12:22.010Z,99.90
2023-02-24T09:14:55.643Z,99.90
2023-02-24T09:17:41.268Z,99.90
2023-02-24T09:20:31.049Z,99.90
2023-02-24T09:23:09.017Z,99.90
2023-02-24T09:25:43.673Z,99.90
2023-02-24T09:28:19.757Z,99.90
2023-02-24T09:30:53.593Z,99.90
2023-02-24T09:33:41.967Z,99.60
2023-02-24T09:36:20.405Z,99.90
2023-02-24T09:38:59.477Z,99.90
2023-02-24T09:41:53.598Z,99.50
2023-02-24T09:44:44.596Z,99.30
2023-02-24T09:47:45.719Z,99.60
2023-02-24T09:50:51.267Z,99.00
2023-02-24T09:53:18.601Z,99.00
2023-02-24T09:56:00.770Z,98.70
2023-02-24T09:58:49.503Z,98.20
2023-02-24T10:01:31.100Z,98.20
2023-02-24T10:04:20.249Z,97.90
2023-02-24T10:07:10.015Z,97.50
2023-02-24T10:09:46.495Z,97.00
2023-02-24T10:12:19.870Z,96.90
2023-02-24T10:15:20.833Z,97.00
2023-02-24T10:18:04.076Z,97.10
2023-02-24T10:20:40.357Z,97.50
2023-02-24T10:23:13.214Z,97.50
2023-02-24T10:25:56.400Z,97.80
2023-02-24T10:28:52.173Z,97.00
2023-02-24T10:31:35.877Z,96.50
2023-02-24T10:34:10.387Z,96.40
2023-02-24T10:36:39.252Z,95.60
2023-02-24T10:39:15.753Z,95.60
2023-02-24T10:41:49.338Z,95.40
2023-02-24T10:44:25.051Z,95.60
2023-02-24T10:47:14.186Z,94.90
2023-02-24T10:49:59.779Z,94.80
2023-02-24T10:52:50.597Z,94.00
2023-02-24T10:55:43.083Z,93.80
2023-02-24T10:58:45.000Z,93.30
2023-02-24T11:01:40.640Z,93.20
2023-02-24T11:04:33.419Z,93.10
2023-02-24T11:07:12.345Z,92.70
2023-02-24T11:09:52.829Z,92.50
2023-02-24T11:12:41.794Z,92.40
2023-02-24T11:15:43.432Z,92.40
2023-02-24T11:18:24.497Z,92.30
2023-02-24T11:21:03.192Z,91.90
2023-02-24T11:23:33.349Z,91.90
2023-02-24T11:26:04.809Z,91.80
2023-02-24T11:28:49.701Z,92.20
2023-02-24T11:31:52.103Z,91.90
2023-02-24T11:34:30.996Z,91.60
2023-02-24T11:37:01.515Z,91.50
2023-02-24T11:39:53.673Z,91.20
2023-02-24T11:42:27.157Z,91.30
2023-02-24T11:45:03.527Z,91.10
2023-02-24T11:47:48.972Z,91.40
2023-02-24T11:50:39.918Z,91.30
2023-02-24T11:53:32.232Z,91.20
2023-02-24T11:56:10.089Z,91.40
2023-02-24T11:58:53.111Z,91.00
2023-02-24T12:01:48.392Z,90.80
2023-02-24T12:04:29.160Z,90.80
2023-02-24T12:07:08.518Z,90.30
2023-02-24T12:10:00.257Z,90.00
2023-02-24T12:12:47.154Z,89.90
2023-02-24T12:15:31.058Z,90.00
2023-02-24T12:18:16.816Z,89.90
2023-02-24T12:21:03.655Z,89.60
2023-02-24T12:23:40.357Z,90.00
2023-02-24T12:26:27.318Z,89.50
2023-02-24T12:28:57.660Z,89.90
2023-02-24T12:31:33.931Z,89.30
2023-02-24T12:34:12.179Z,89.00
2023-02-24T12:36:58.151Z,88.90
2023-02-24T12:39:27.384Z,89.10
2023-02-24T12:42:05.820Z,90.00
2023-02-24T12:44:52.614Z,90.20
2023-02-24T12:47:45.116Z,90.00
2023-02-24T12:50:53.060Z,89.90
2023-02-24T12:53:37.782Z,89.10
2023-02-24T12:56:08.025Z,89.80
2023-02-24T12:58:39.772Z,88.60
2023-02-24T13:01:12.264Z,88.90
2023-02-24T13:03:46.426Z,88.60
2023-02-24T13:06:37.229Z,88.80
2023-02-24T13:09:33.937Z,89.90
2023-02-24T13:12:13.310Z,90.10
2023-02-24T13:14:42.248Z,90.30
2023-02-24T13:17:12.257Z,89.80
2023-02-24T13:19:41.575Z,89.70
2023-02-24T13:22:12.018Z,89.10
2023-02-24T13:24:54.839Z,89.00
2023-02-24T13:27:33.962Z,88.90
2023-02-24T13:30:17.981Z,89.00
2023-02-24T13:33:19.164Z,89.50
2023-02-24T13:35:49.314Z,90.10
2023-02-24T13:38:32.188Z,89.60
2023-02-24T13:41:18.096Z,89.50
2023-02-24T13:43:56.038Z,89.20
2023-02-24T13:46:23.757Z,89.40
2023-02-24T13:49:01.215Z,89.60
2023-02-24T13:51:49.427Z,89.80
2023-02-24T13:54:37.955Z,89.50
2023-02-24T13:57:39.601Z,88.20
2023-02-24T14:00:39.199Z,88.10
2023-02-24T14:03:20.886Z,88.50
2023-02-24T14:05:50.351Z,87.30
2023-02-24T14:08:30.067Z,85.50
2023-02-24T14:10:59.097Z,84.60
2023-02-24T14:13:30.111Z,85.60
2023-02-24T14:15:59.693Z,85.40
2023-02-24T14:18:29.406Z,85.50
2023-02-24T14:20:58.173Z,85.10
2023-02-24T14:23:32.091Z,85.50
2023-02-24T14:26:05.704Z,85.00
2023-02-24T14:28:36.769Z,85.30
2023-02-24T14:31:14.818Z,85.20
2023-02-24T14:33:44.398Z,85.30
2023-02-24T14:36:23.883Z,85.20
2023-02-24T14:39:10.287Z,85.20
2023-02-24T14:41:38.023Z,86.20
2023-02-24T14:44:31.592Z,85.80
2023-02-24T14:47:04.198Z,85.70
2023-02-24T14:49:32.852Z,85.90
2023-02-24T14:52:03.086Z,86.30
2023-02-24T14:54:45.710Z,86.70
2023-02-24T14:57:18.471Z,86.80
2023-02-24T14:59:47.392Z,86.60
2023-02-24T15:02:22.240Z,86.90
2023-02-24T15:04:50.193Z,86.90
2023-02-24T15:07:33.759Z,86.40
2023-02-24T15:10:02.696Z,87.40
2023-02-24T15:12:44.930Z,87.40
2023-02-24T15:15:25.013Z,87.30
2023-02-24T15:18:00.220Z,87.90
2023-02-24T15:20:40.916Z,88.20
2023-02-24T15:23:26.975Z,88.40
2023-02-24T15:25:54.764Z,88.50
2023-02-24T15:28:34.050Z,88.50
2023-02-24T15:31:01.488Z,89.00
2023-02-24T15:33:38.815Z,89.40
2023-02-24T15:36:11.881Z,89.60
2023-02-24T15:38:42.326Z,90.10
2023-02-24T15:41:12.090Z,90.30
2023-02-24T15:43:47.972Z,90.30
2023-02-24T15:46:28.649Z,90.50
2023-02-24T15:48:57.645Z,90.60
2023-02-24T15:51:49.297Z,90.90
2023-02-24T15:54:42.739Z,91.00
2023-02-24T15:57:13.095Z,91.10
2023-02-24T15:59:40.860Z,91.20
2023-02-24T16:02:18.474Z,91.30
2023-02-24T16:04:47.036Z,91.50
2023-02-24T16:07:35.792Z,91.90
2023-02-24T16:10:04.064Z,92.00
2023-02-24T16:12:43.041Z,92.10
2023-02-24T16:15:18.992Z,92.30
2023-02-24T16:17:47.248Z,92.70
2023-02-24T16:20:27.918Z,92.70
2023-02-24T16:22:57.655Z,92.80
2023-02-24T16:25:26.613Z,93.00
2023-02-24T16:27:57.497Z,93.30
2023-02-24T16:30:30.607Z,93.50
2023-02-24T16:32:59.951Z,93.70
2023-02-24T16:35:28.785Z,94.00
2023-02-24T16:37:56.852Z,94.00
2023-02-24T16:40:37.436Z,94.20
2023-02-24T16:43:05.339Z,94.30
2023-02-24T16:45:34.958Z,94.50
2023-02-24T16:48:07.338Z,94.70
2023-02-24T16:50:39.278Z,94.90
2023-02-24T16:53:08.170Z,95.10
2023-02-24T16:55:35.859Z,95.40
2023-02-24T16:58:03.043Z,95.70
2023-02-24T17:00:30.517Z,95.80
2023-02-24T17:02:58.340Z,96.10
2023-02-24T17:05:27.276Z,96.30
2023-02-24T17:07:58.902Z,96.40
2023-02-24T17:10:26.614Z,96.60
2023-02-24T17:12:59.542Z,96.70
2023-02-24T17:15:27.870Z,96.80
2023-02-24T17:17:55.683Z,96.90
2023-02-24T17:20:23.709Z,97.20
2023-02-24T17:22:50.923Z,97.10
2023-02-24T17:25:25.041Z,97.20
2023-02-24T17:27:55.318Z,97.30
2023-02-24T17:30:31.731Z,97.40
2023-02-24T17:32:59.845Z,97.50
2023-02-24T17:35:28.455Z,97.60
2023-02-24T17:37:55.859Z,97.70
2023-02-24T17:40:23.329Z,97.80
2023-02-24T17:42:51.491Z,97.60
2023-02-24T17:45:19.677Z,98.00
2023-02-24T17:47:47.109Z,97.90
2023-02-24T17:50:14.974Z,97.90
2023-02-24T17:52:42.950Z,98.00
2023-02-24T17:55:11.046Z,97.90
2023-02-24T17:57:40.245Z,97.60
2023-02-24T18:00:09.834Z,97.60
2023-02-24T18:02:40.782Z,97.70
2023-02-24T18:05:10.812Z,97.70
2023-02-24T18:07:38.527Z,97.60
2023-02-24T18:10:12.230Z,97.50
2023-02-24T18:12:43.153Z,97.20
2023-02-24T18:15:13.008Z,97.10
2023-02-24T18:17:41.248Z,97.30
2023-02-24T18:20:12.319Z,97.20
2023-02-24T18:22:40.206Z,97.80
2023-02-24T18:25:08.547Z,97.70
2023-02-24T18:27:38.475Z,97.50
2023-02-24T18:30:07.235Z,97.70
2023-02-24T18:32:36.442Z,97.80
2023-02-24T18:35:08.352Z,98.00
2023-02-24T18:37:37.100Z,98.10
2023-02-24T18:40:05.813Z,98.00
2023-02-24T18:42:34.030Z,98.20
2023-02-24T18:45:02.141Z,98.10
2023-02-24T18:47:30.366Z,98.10
2023-02-24T18:49:58.573Z,98.10
2023-02-24T18:52:27.156Z,98.10
2023-02-24T18:54:56.783Z,98.10
2023-02-24T18:57:25.105Z,98.00
2023-02-24T18:59:53.481Z,98.10
2023-02-24T19:02:22.076Z,98.20
2023-02-24T19:04:50.304Z,98.30
2023-02-24T19:07:18.356Z,98.50
2023-02-24T19:09:51.594Z,98.50
2023-02-24T19:12:22.000Z,98.50
2023-02-24T19:14:53.681Z,98.50
2023-02-24T19:17:22.144Z,98.40
2023-02-24T19:19:50.175Z,98.40
2023-02-24T19:22:18.180Z,98.40
2023-02-24T19:24:49.770Z,98.50
2023-02-24T19:27:19.422Z,98.50
2023-02-24T19:29:48.332Z,98.40
2023-02-24T19:32:16.823Z,98.40
2023-02-24T19:34:46.392Z,98.30
2023-02-24T19:37:14.828Z,98.50
2023-02-24T19:39:43.343Z,98.50
2023-02-24T19:42:11.679Z,98.60
2023-02-24T19:44:39.255Z,98.60
2023-02-24T19:47:06.903Z,98.80
2023-02-24T19:49:34.720Z,99.00
2023-02-24T19:52:03.106Z,99.20
2023-02-24T19:54:31.094Z,99.40
2023-02-24T19:56:59.461Z,99.70
2023-02-24T19:59:28.560Z,99.90
2023-02-24T20:01:57.077Z,99.90
2023-02-24T20:04:25.619Z,99.90
2023-02-24T20:06:54.247Z,99.90
2023-02-24T20:09:23.947Z,99.90
2023-02-24T20:11:52.821Z,99.90
2023-02-24T20:14:41.473Z,99.90
2023-02-24T20:17:11.129Z,99.90
2023-02-24T20:19:40.278Z,99.90
2023-02-24T20:22:08.992Z,99.90
2023-02-24T20:24:37.882Z,99.90
2023-02-24T20:27:06.054Z,99.90
2023-02-24T20:29:38.413Z,99.90
2023-02-24T20:32:09.539Z,99.90
2023-02-24T20:34:42.701Z,99.90
2023-02-24T20:37:11.291Z,99.90
2023-02-24T20:39:40.591Z,99.90
2023-02-24T20:42:09.393Z,99.90
2023-02-24T20:44:37.334Z,99.90
2023-02-24T20:47:05.588Z,99.90
2023-02-24T20:49:34.009Z,99.90
2023-02-24T20:52:01.985Z,99.90
2023-02-24T20:54:30.294Z,99.90
2023-02-24T20:56:59.822Z,99.90
2023-02-24T20:59:28.185Z,99.90
2023-02-24T21:01:56.822Z,99.90
2023-02-24T21:04:27.380Z,99.90
2023-02-24T21:06:55.688Z,99.90
2023-02-24T21:09:24.121Z,99.90
2023-02-24T21:11:53.191Z,99.90
2023-02-24T21:14:22.570Z,99.90
2023-02-24T21:16:50.550Z,99.90
2023-02-24T21:19:23.481Z,99.90
2023-02-24T21:21:51.643Z,99.90
2023-02-24T21:24:19.369Z,99.90
2023-02-24T21:26:48.472Z,99.90
2023-02-24T21:29:16.528Z,99.90
2023-02-24T21:31:44.379Z,99.90
2023-02-24T21:34:12.623Z,99.90
2023-02-24T21:36:40.670Z,99.90
2023-02-24T21:39:08.416Z,99.90
2023-02-24T21:41:39.502Z,99.90
2023-02-24T21:44:07.427Z,99.90
2023-02-24T21:46:35.231Z,99.90
2023-02-24T21:49:03.150Z,99.90
2023-02-24T21:51:30.651Z,99.90
2023-02-24T21:53:58.799Z,99.90
2023-02-24T21:56:28.572Z,99.90
2023-02-24T21:59:04.836Z,99.90
2023-02-24T22:01:38.084Z,99.90
2023-02-24T22:04:09.369Z,99.90
2023-02-24T22:06:38.324Z,99.90
2023-02-24T22:09:08.279Z,99.90
2023-02-24T22:11:38.881Z,99.90
2023-02-24T22:14:11.288Z,99.90
2023-02-24T22:16:39.182Z,99.90
2023-02-24T22:19:07.937Z,99.90
2023-02-24T22:21:35.276Z,99.90
2023-02-24T22:24:03.646Z,99.90
2023-02-24T22:26:32.322Z,99.90
2023-02-24T22:29:00.743Z,99.90
2023-02-24T22:31:31.580Z,99.90
2023-02-24T22:33:59.908Z,99.90
2023-02-24T22:36:31.189Z,99.90
2023-02-24T22:38:59.824Z,99.90
2023-02-24T22:41:35.130Z,99.90
2023-02-24T22:44:04.653Z,99.90
2023-02-24T22:46:38.543Z,99.90
2023-02-24T22:49:06.824Z,99.90
2023-02-24T22:51:34.985Z,99.90
2023-02-24T22:54:02.715Z,99.90
2023-02-24T22:56:31.103Z,99.90
2023-02-24T22:58:59.496Z,99.90
2023-02-24T23:01:29.869Z,99.90
2023-02-24T23:04:01.282Z,99.90
2023-02-24T23:06:29.578Z,99.90
2023-02-24T23:08:59.283Z,99.90
2023-02-24T23:11:32.042Z,99.90
2023-02-24T23:14:00.591Z,99.90
2023-02-24T23:16:31.971Z,99.90
2023-02-24T23:19:04.542Z,99.90
2023-02-24T23:21:38.058Z,99.90
2023-02-24T23:24:07.445Z,99.90
2023-02-24T23:26:38.449Z,99.90
2023-02-24T23:29:06.667Z,99.90
2023-02-24T23:31:34.447Z,99.90
2023-02-24T23:34:04.007Z,99.90
2023-02-24T23:36:31.575Z,99.90
2023-02-24T23:38:59.020Z,99.90
2023-02-24T23:41:26.682Z,99.90
2023-02-24T23:43:54.138Z,99.90
2023-02-24T23:46:22.105Z,99.90
2023-02-24T23:48:53.980Z,99.90
2023-02-24T23:51:21.664Z,99.90
2023-02-24T23:53:49.813Z,99.90
2023-02-24T23:56:23.119Z,99.90
2023-02-24T23:58:55.912Z,99.90
